Time;durP1;ratioP1;P1;durP2;ratioP2;P2;SDS_P1;SDS_P2;PMS_P1;PMS_P2;Temp;Humidity;BMP_temperature;BMP_pressure;BME280_temperature;BME280_humidity;BME280_pressure;Samples;Min_cycle;Max_cycle;Signal;HPM_P1;HPM_P2
2021/03/02 00:00:10;;;;;;;110.40;24.70;;;2.90;97.30;;;;;;4959554;28;20422;-79
2021/03/02 00:02:40;;;;;;;119.53;25.63;;;2.90;97.30;;;;;;4959051;28;20485;-79
2021/03/02 00:05:10;;;;;;;119.00;25.70;;;2.80;97.30;;;;;;4959451;28;20436;-79
2021/03/02 00:07:36;;;;;;;159.53;25.90;;;2.80;97.30;;;;;;4959572;28;21202;-79
2021/03/02 00:10:07;;;;;;;160.17;25.57;;;2.70;97.30;;;;;;4959405;28;20557;-79
2021/03/02 00:12:34;;;;;;;100.60;21.53;;;2.60;97.30;;;;;;4958047;28;20450;-79
2021/03/02 00:15:00;;;;;;;166.77;25.30;;;2.60;97.30;;;;;;4959525;28;20428;-80
2021/03/02 00:17:34;;;;;;;131.27;25.20;;;2.60;97.30;;;;;;4959346;28;20496;-80
2021/03/02 00:20:15;;;;;;;158.20;27.77;;;2.60;97.30;;;;;;4959038;28;20956;-80
2021/03/02 00:22:44;;;;;;;122.53;25.63;;;2.60;97.30;;;;;;4959421;28;20502;-79
2021/03/02 00:25:11;;;;;;;101.07;23.37;;;2.70;97.30;;;;;;4960177;28;20417;-80
2021/03/02 00:27:39;;;;;;;159.70;25.57;;;2.60;97.30;;;;;;4960102;28;20517;-80
2021/03/02 00:30:05;;;;;;;144.90;22.93;;;2.60;97.30;;;;;;4959958;28;20477;-80
2021/03/02 00:32:32;;;;;;;151.07;24.63;;;2.60;97.30;;;;;;4959928;28;20489;-80
2021/03/02 00:34:58;;;;;;;119.03;20.93;;;2.50;97.30;;;;;;4960089;28;20872;-80
2021/03/02 00:37:24;;;;;;;235.20;29.40;;;2.60;97.30;;;;;;4960114;28;20425;-80
2021/03/02 00:39:49;;;;;;;152.23;25.63;;;2.50;97.30;;;;;;4959749;28;20528;-79
2021/03/02 00:42:16;;;;;;;198.80;29.50;;;2.60;97.30;;;;;;4960090;28;20205;-79
2021/03/02 00:44:44;;;;;;;117.67;22.27;;;2.60;97.30;;;;;;4959664;28;20202;-79
2021/03/02 00:47:09;;;;;;;150.13;26.80;;;2.50;97.30;;;;;;4977432;28;20444;-78
2021/03/02 00:49:35;;;;;;;171.33;26.40;;;2.40;97.30;;;;;;4960242;28;20453;-79
2021/03/02 00:52:01;;;;;;;197.83;26.10;;;2.40;97.30;;;;;;4960280;28;20237;-80
2021/03/02 00:54:26;;;;;;;221.80;27.97;;;2.30;97.30;;;;;;4978380;28;20198;-80
2021/03/02 00:56:52;;;;;;;141.53;25.63;;;2.30;97.30;;;;;;4960491;28;20785;-80
2021/03/02 00:59:27;;;;;;;134.07;24.30;;;2.30;97.30;;;;;;4960493;28;20186;-80
2021/03/02 01:01:52;;;;;;;159.60;23.70;;;2.30;97.30;;;;;;4959558;28;20204;-79
2021/03/02 01:04:18;;;;;;;164.27;24.20;;;2.30;97.30;;;;;;4958956;28;20517;-79
2021/03/02 01:06:44;;;;;;;199.10;27.73;;;2.40;97.30;;;;;;4959648;28;20183;-80
2021/03/02 01:09:10;;;;;;;216.63;28.13;;;2.40;97.30;;;;;;4959484;28;20248;-80
2021/03/02 01:11:36;;;;;;;218.13;29.63;;;2.40;97.30;;;;;;4959996;28;20473;-80
2021/03/02 01:14:01;;;;;;;228.63;29.57;;;2.40;97.30;;;;;;4959766;28;20429;-80
2021/03/02 01:16:34;;;;;;;135.50;26.73;;;2.40;97.30;;;;;;4977219;28;20489;-80
2021/03/02 01:18:59;;;;;;;125.80;25.30;;;2.50;97.30;;;;;;4960171;28;20269;-80
2021/03/02 01:21:25;;;;;;;101.03;23.53;;;2.50;97.30;;;;;;4977280;28;20523;-80
2021/03/02 01:23:51;;;;;;;159.93;26.23;;;2.50;97.30;;;;;;4978313;28;20541;-80
2021/03/02 01:26:16;;;;;;;251.33;30.77;;;2.50;97.30;;;;;;4978620;28;20647;-80
2021/03/02 01:28:42;;;;;;;113.23;24.90;;;2.40;97.30;;;;;;4978401;28;20645;-80
2021/03/02 01:31:08;;;;;;;136.97;24.10;;;2.50;97.30;;;;;;4996416;28;20193;-80
2021/03/02 01:33:33;;;;;;;98.27;24.30;;;2.40;97.30;;;;;;4978268;28;20265;-80
2021/03/02 01:35:59;;;;;;;145.63;22.93;;;2.40;97.30;;;;;;4978431;28;20611;-80
2021/03/02 01:38:25;;;;;;;149.53;25.10;;;2.40;97.30;;;;;;4995645;28;20176;-80
2021/03/02 01:40:50;;;;;;;123.37;25.60;;;2.30;97.30;;;;;;4978480;28;20284;-80
2021/03/02 01:43:16;;;;;;;126.33;22.60;;;2.30;97.30;;;;;;4995761;28;20174;-80
2021/03/02 01:45:42;;;;;;;138.10;23.47;;;2.30;97.30;;;;;;4979147;28;20182;-79
2021/03/02 01:48:08;;;;;;;120.33;22.47;;;2.30;97.30;;;;;;4978433;28;20177;-80
2021/03/02 01:50:34;;;;;;;96.90;22.47;;;2.30;97.30;;;;;;4995615;28;20203;-80
2021/03/02 01:52:59;;;;;;;172.33;23.47;;;2.20;97.30;;;;;;4978196;28;20472;-79
2021/03/02 01:55:25;;;;;;;113.73;22.30;;;2.20;97.30;;;;;;4978959;28;20216;-80
2021/03/02 01:57:51;;;;;;;105.70;21.93;;;2.20;97.30;;;;;;4978694;28;20178;-80
2021/03/02 02:00:28;;;;;;;113.20;23.10;;;2.20;97.30;;;;;;4978836;28;20472;-80
2021/03/02 02:03:03;;;;;;;95.70;19.30;;;2.20;97.30;;;;;;4995910;28;20186;-80
2021/03/02 02:05:36;;;;;;;79.17;19.13;;;2.20;97.30;;;;;;4978148;28;20507;-79
2021/03/02 02:08:06;;;;;;;114.00;21.63;;;2.10;97.30;;;;;;4978588;28;20420;-79
2021/03/02 02:10:49;;;;;;;103.33;20.50;;;2.00;97.30;;;;;;4995344;28;20539;-79
2021/03/02 02:13:36;;;;;;;88.03;19.50;;;2.00;97.30;;;;;;4995298;28;20393;-80
2021/03/02 02:16:06;;;;;;;80.03;19.90;;;2.00;97.30;;;;;;4976826;28;20421;-79
2021/03/02 02:18:34;;;;;;;82.57;19.33;;;1.90;97.30;;;;;;4976482;28;20416;-80
2021/03/02 02:21:06;;;;;;;122.60;21.47;;;1.90;97.30;;;;;;4976555;28;20441;-79
2021/03/02 02:23:34;;;;;;;84.43;18.80;;;1.80;97.30;;;;;;4976367;28;20425;-80
2021/03/02 02:26:06;;;;;;;137.23;22.70;;;1.70;97.30;;;;;;4976142;28;20421;-80
2021/03/02 02:28:35;;;;;;;124.47;21.23;;;1.60;97.30;;;;;;4976019;28;20421;-80
2021/03/02 02:31:02;;;;;;;87.73;18.97;;;1.70;97.30;;;;;;4975913;28;20483;-79
2021/03/02 02:33:33;;;;;;;103.83;21.13;;;1.70;97.30;;;;;;4993557;28;20492;-80
2021/03/02 02:36:00;;;;;;;68.50;18.40;;;1.80;97.30;;;;;;4978792;28;20452;-79
2021/03/02 02:38:27;;;;;;;101.67;21.93;;;1.80;97.30;;;;;;4997678;28;20397;-80
2021/03/02 02:40:53;;;;;;;82.97;21.60;;;1.90;97.30;;;;;;4979852;28;20440;-80
2021/03/02 02:43:20;;;;;;;82.77;20.00;;;1.90;97.30;;;;;;4979818;28;20950;-80
2021/03/02 02:45:48;;;;;;;94.17;19.30;;;2.00;97.30;;;;;;4981069;28;20440;-79
2021/03/02 02:48:22;;;;;;;78.27;18.83;;;2.00;97.30;;;;;;4997970;28;20401;-80
2021/03/02 02:50:52;;;;;;;80.37;20.03;;;2.00;97.30;;;;;;4980334;28;20475;-79
2021/03/02 02:53:19;;;;;;;60.50;18.40;;;2.00;97.30;;;;;;4980313;28;20509;-79
2021/03/02 02:56:02;;;;;;;73.97;18.47;;;2.00;97.30;;;;;;4980521;28;20912;-80
2021/03/02 02:58:51;;;;;;;89.90;21.70;;;2.00;97.30;;;;;;4980411;28;20423;-79
2021/03/02 03:01:19;;;;;;;69.37;18.80;;;2.00;97.30;;;;;;4997216;28;20448;-80
2021/03/02 03:03:47;;;;;;;79.23;20.23;;;2.00;97.30;;;;;;4980828;28;20431;-79
2021/03/02 03:06:16;;;;;;;115.50;22.17;;;2.00;97.30;;;;;;4980212;28;20444;-79
2021/03/02 03:08:49;;;;;;;106.10;21.50;;;1.90;97.30;;;;;;4981102;28;20438;-80
2021/03/02 03:11:18;;;;;;;112.70;20.60;;;1.90;97.30;;;;;;4998221;28;20416;-79
2021/03/02 03:13:46;;;;;;;71.63;18.50;;;1.90;97.30;;;;;;4980671;28;20437;-79
2021/03/02 03:16:13;;;;;;;63.83;19.13;;;1.90;97.30;;;;;;4997903;28;20405;-80
2021/03/02 03:18:52;;;;;;;94.80;20.27;;;1.90;97.30;;;;;;4980724;28;20441;-80
2021/03/02 03:21:18;;;;;;;71.93;18.53;;;2.00;97.30;;;;;;4980390;28;20436;-79
2021/03/02 03:23:46;;;;;;;75.93;19.20;;;2.00;97.30;;;;;;4997953;28;20412;-79
2021/03/02 03:26:15;;;;;;;71.70;18.17;;;2.00;97.30;;;;;;4997090;28;20459;-80
2021/03/02 03:28:44;;;;;;;107.23;20.70;;;2.00;97.30;;;;;;4979092;28;20504;-79
2021/03/02 03:31:11;;;;;;;189.97;20.87;;;1.90;97.30;;;;;;4979351;28;20491;-79
2021/03/02 03:33:40;;;;;;;76.77;19.20;;;1.90;97.30;;;;;;4979358;28;20497;-79
2021/03/02 03:36:07;;;;;;;111.07;20.60;;;1.80;97.30;;;;;;4979014;28;20453;-79
2021/03/02 03:38:33;;;;;;;119.87;20.07;;;1.80;97.30;;;;;;4978979;28;20409;-80
2021/03/02 03:40:59;;;;;;;109.30;20.47;;;1.70;97.30;;;;;;4995979;28;20479;-79
2021/03/02 03:43:24;;;;;;;90.50;18.20;;;1.80;97.30;;;;;;4995905;28;20194;-79
2021/03/02 03:45:50;;;;;;;100.53;20.30;;;1.80;97.30;;;;;;4978648;28;20182;-80
2021/03/02 03:48:15;;;;;;;127.70;22.10;;;1.90;97.30;;;;;;4978900;28;20608;-79
2021/03/02 03:50:41;;;;;;;116.67;21.50;;;1.90;97.30;;;;;;4978647;28;20206;-79
2021/03/02 03:53:09;;;;;;;59.70;15.77;;;1.90;97.30;;;;;;4978800;28;20317;-79
2021/03/02 03:55:41;;;;;;;140.57;19.47;;;2.00;97.30;;;;;;4997016;28;20181;-79
2021/03/02 03:58:11;;;;;;;93.00;19.17;;;2.00;97.30;;;;;;5011972;28;20432;-81
2021/03/02 04:00:39;;;;;;;131.20;22.10;;;2.00;97.30;;;;;;4995001;28;20417;-80
2021/03/02 04:03:06;;;;;;;111.60;19.03;;;2.10;97.30;;;;;;4992572;28;20436;-80
2021/03/02 04:05:34;;;;;;;100.90;21.17;;;2.10;97.30;;;;;;4997257;28;20424;-80
2021/03/02 04:08:00;;;;;;;78.87;17.60;;;2.10;97.30;;;;;;4979503;28;20512;-80
2021/03/02 04:10:27;;;;;;;117.20;19.70;;;2.10;97.30;;;;;;4979704;28;20499;-80
2021/03/02 04:12:53;;;;;;;118.53;18.40;;;2.20;97.30;;;;;;4979121;28;20182;-80
2021/03/02 04:15:19;;;;;;;116.70;19.87;;;2.20;97.30;;;;;;4979588;28;20512;-80
2021/03/02 04:17:50;;;;;;;94.40;20.27;;;2.10;97.30;;;;;;4979578;28;20413;-80
2021/03/02 04:20:16;;;;;;;107.43;19.90;;;2.10;97.30;;;;;;4979717;28;20456;-80
2021/03/02 04:22:42;;;;;;;135.00;19.57;;;2.10;97.30;;;;;;4996763;28;20437;-80
2021/03/02 04:25:08;;;;;;;67.43;17.53;;;2.10;97.30;;;;;;4997090;28;20616;-79
2021/03/02 04:27:34;;;;;;;122.97;20.37;;;2.10;97.30;;;;;;4978721;28;20417;-79
2021/03/02 04:30:00;;;;;;;115.70;18.80;;;2.20;97.30;;;;;;4979055;28;20523;-80
2021/03/02 04:32:25;;;;;;;155.33;21.13;;;2.20;97.30;;;;;;4978810;28;20724;-79
2021/03/02 04:34:51;;;;;;;136.30;21.40;;;2.20;97.30;;;;;;4978651;28;20633;-79
2021/03/02 04:37:16;;;;;;;144.47;19.70;;;2.10;97.30;;;;;;4995513;28;20173;-79
2021/03/02 04:39:42;;;;;;;134.13;19.40;;;2.10;97.30;;;;;;4995604;28;20222;-79
2021/03/02 04:42:08;;;;;;;119.00;17.90;;;2.10;97.30;;;;;;4977452;28;20197;-79
2021/03/02 04:44:34;;;;;;;128.27;19.77;;;2.10;97.30;;;;;;4977750;28;20209;-80
2021/03/02 04:46:59;;;;;;;149.63;22.63;;;2.10;97.30;;;;;;4977735;28;20510;-79
2021/03/02 04:49:25;;;;;;;104.83;18.80;;;2.00;97.30;;;;;;4978039;28;20205;-80
2021/03/02 04:51:57;;;;;;;161.73;20.87;;;2.00;97.30;;;;;;4976746;28;20716;-81
2021/03/02 04:54:24;;;;;;;100.97;17.53;;;2.00;97.30;;;;;;4974390;28;20753;-79
2021/03/02 04:56:50;;;;;;;123.87;19.43;;;2.00;97.30;;;;;;4975144;28;20417;-79
2021/03/02 04:59:16;;;;;;;86.13;17.07;;;2.00;97.30;;;;;;4973476;28;20410;-80
2021/03/02 05:01:41;;;;;;;92.97;18.50;;;2.00;97.30;;;;;;4974478;28;20742;-79
2021/03/02 05:04:07;;;;;;;71.40;15.73;;;2.00;97.30;;;;;;4974555;28;20182;-79
2021/03/02 05:06:33;;;;;;;138.87;20.27;;;1.90;97.30;;;;;;4976095;28;20577;-79
2021/03/02 05:08:58;;;;;;;144.07;18.23;;;1.90;97.30;;;;;;4975708;28;20183;-79
2021/03/02 05:11:24;;;;;;;143.33;18.20;;;1.70;97.30;;;;;;4974920;28;20298;-79
2021/03/02 05:13:49;;;;;;;158.20;20.53;;;1.70;97.30;;;;;;4975001;28;20189;-79
2021/03/02 05:16:15;;;;;;;283.43;26.50;;;1.70;97.30;;;;;;4974761;28;20179;-79
2021/03/02 05:18:41;;;;;;;213.90;21.90;;;1.70;97.30;;;;;;4975949;28;20246;-79
2021/03/02 05:21:07;;;;;;;239.57;25.93;;;1.70;97.30;;;;;;4974365;28;20198;-79
2021/03/02 05:23:33;;;;;;;263.57;23.50;;;1.60;97.30;;;;;;4974719;28;20472;-79
2021/03/02 05:25:59;;;;;;;161.17;20.37;;;1.60;97.30;;;;;;4976085;28;20892;-79
2021/03/02 05:28:25;;;;;;;209.10;25.37;;;1.70;97.30;;;;;;4974747;28;20318;-79
2021/03/02 05:30:51;;;;;;;154.63;21.40;;;1.60;97.30;;;;;;4976290;28;20296;-80
2021/03/02 05:33:17;;;;;;;188.70;20.37;;;1.60;97.30;;;;;;4975084;28;20258;-79
2021/03/02 05:35:42;;;;;;;233.77;23.37;;;1.60;97.30;;;;;;4976242;28;20982;-80
2021/03/02 05:38:08;;;;;;;144.43;19.70;;;1.60;97.30;;;;;;4974782;28;20181;-78
2021/03/02 05:40:33;;;;;;;222.70;22.13;;;1.60;97.30;;;;;;4974553;28;20265;-79
2021/03/02 05:42:59;;;;;;;219.13;22.40;;;1.50;97.30;;;;;;4973803;28;20240;-79
2021/03/02 05:45:25;;;;;;;216.33;20.97;;;1.60;97.30;;;;;;4973456;28;20210;-79
2021/03/02 05:47:52;;;;;;;127.43;20.47;;;1.60;97.30;;;;;;4973186;28;20577;-79
2021/03/02 05:50:18;;;;;;;88.40;15.97;;;1.60;97.30;;;;;;4973028;28;20259;-81
2021/03/02 05:52:44;;;;;;;86.43;15.63;;;1.70;97.30;;;;;;4980441;28;20465;-79
2021/03/02 05:55:11;;;;;;;82.20;15.07;;;1.70;97.30;;;;;;4976575;28;20629;-79
2021/03/02 05:57:38;;;;;;;166.43;20.03;;;1.70;97.30;;;;;;4968939;28;20189;-79
2021/03/02 06:00:05;;;;;;;73.83;15.43;;;1.80;97.30;;;;;;4975907;28;20417;-79
2021/03/02 06:02:35;;;;;;;96.00;16.37;;;1.80;97.30;;;;;;4990518;28;20457;-78
2021/03/02 06:05:07;;;;;;;149.13;17.70;;;1.70;97.30;;;;;;4982195;28;20421;-78
2021/03/02 06:07:33;;;;;;;214.67;24.37;;;1.70;97.30;;;;;;4992097;28;20424;-80
2021/03/02 06:09:59;;;;;;;147.80;19.67;;;1.60;97.30;;;;;;4994475;28;20467;-79
2021/03/02 06:12:25;;;;;;;147.97;17.67;;;1.50;97.30;;;;;;4996841;28;20197;-80
2021/03/02 06:15:06;;;;;;;147.33;17.93;;;1.60;97.30;;;;;;4989177;28;20262;-80
2021/03/02 06:17:32;;;;;;;141.07;16.23;;;1.50;97.30;;;;;;4967462;28;20248;-79
2021/03/02 06:19:58;;;;;;;174.00;20.83;;;1.40;97.30;;;;;;4969674;28;20966;-79
2021/03/02 06:22:32;;;;;;;142.83;16.90;;;1.40;97.30;;;;;;4967955;28;20490;-79
2021/03/02 06:24:58;;;;;;;197.10;19.70;;;1.40;97.30;;;;;;4965527;28;20182;-79
2021/03/02 06:27:24;;;;;;;101.20;18.37;;;1.40;97.30;;;;;;4965959;28;20609;-81
2021/03/02 06:30:11;;;;;;;200.23;23.33;;;1.40;97.30;;;;;;4966977;28;20461;-81
2021/03/02 06:32:47;;;;;;;176.73;24.10;;;1.40;97.30;;;;;;4966859;28;20214;-78
2021/03/02 06:35:34;;;;;;;175.40;21.17;;;1.40;97.30;;;;;;4965609;28;20422;-79
2021/03/02 06:38:01;;;;;;;131.33;20.37;;;1.40;97.30;;;;;;4968436;28;20410;-77
2021/03/02 06:40:46;;;;;;;313.47;27.43;;;1.40;97.30;;;;;;4967379;28;20928;-81
2021/03/02 06:43:33;;;;;;;216.80;26.03;;;1.50;97.30;;;;;;4967331;28;20418;-79
2021/03/02 06:46:07;;;;;;;144.77;20.20;;;1.50;97.30;;;;;;4965414;28;20441;-79
2021/03/02 06:48:54;;;;;;;116.00;18.57;;;1.60;97.30;;;;;;4969733;28;20869;-79
2021/03/02 06:51:33;;;;;;;225.50;23.53;;;1.60;97.30;;;;;;4968024;28;20445;-79
2021/03/02 06:54:10;;;;;;;159.93;19.20;;;1.60;97.30;;;;;;4971779;28;20461;-79
2021/03/02 06:56:39;;;;;;;177.37;24.53;;;1.60;97.30;;;;;;4973879;28;20420;-78
2021/03/02 06:59:19;;;;;;;94.60;17.80;;;1.60;97.30;;;;;;4972557;28;20429;-78
2021/03/02 07:01:47;;;;;;;121.77;18.80;;;1.70;97.30;;;;;;4991712;28;20769;-79
2021/03/02 07:04:15;;;;;;;105.10;18.33;;;1.70;97.30;;;;;;4973147;28;20421;-79
2021/03/02 07:06:44;;;;;;;127.53;20.20;;;1.70;97.30;;;;;;4974680;28;20927;-79
2021/03/02 07:09:15;;;;;;;138.27;19.70;;;1.80;97.30;;;;;;4973894;28;20464;-80
2021/03/02 07:11:41;;;;;;;175.97;23.30;;;1.80;97.30;;;;;;4973780;28;20449;-79
2021/03/02 07:14:09;;;;;;;115.13;19.10;;;1.80;97.30;;;;;;4974918;28;20452;-79
2021/03/02 07:16:39;;;;;;;234.70;24.43;;;1.80;97.30;;;;;;4973511;28;20420;-79
2021/03/02 07:19:05;;;;;;;165.07;20.90;;;1.80;97.30;;;;;;4973247;28;20428;-79
2021/03/02 07:21:36;;;;;;;83.57;16.40;;;1.80;97.30;;;;;;4975116;28;20962;-78
2021/03/02 07:24:04;;;;;;;120.63;20.03;;;1.90;97.30;;;;;;4973988;28;20409;-77
2021/03/02 07:26:32;;;;;;;94.97;17.10;;;2.00;97.30;;;;;;4977151;28;20451;-79
2021/03/02 07:28:58;;;;;;;144.27;20.57;;;2.00;97.30;;;;;;4995376;28;20449;-77
2021/03/02 07:31:25;;;;;;;63.57;17.27;;;2.00;97.30;;;;;;4977055;28;20476;-78
2021/03/02 07:33:51;;;;;;;81.43;16.00;;;2.10;97.30;;;;;;4977812;28;20428;-77
2021/03/02 07:36:17;;;;;;;140.50;18.83;;;2.10;97.30;;;;;;4981154;28;20413;-78
2021/03/02 07:38:42;;;;;;;99.40;17.40;;;2.20;97.30;;;;;;4995810;28;20188;-78
2021/03/02 07:41:08;;;;;;;101.90;20.37;;;2.20;97.30;;;;;;4981069;28;20524;-78
2021/03/02 07:43:36;;;;;;;110.40;18.03;;;2.20;97.30;;;;;;4993245;28;20193;-78
2021/03/02 07:46:36;;;;;;;166.50;20.60;;;2.20;97.30;;;;;;4969311;28;20193;-78
2021/03/02 07:49:31;;;;;;;90.13;16.47;;;2.10;97.30;;;;;;4971141;28;20475;-78
2021/03/02 07:52:00;;;;;;;101.97;17.07;;;2.10;97.30;;;;;;4996436;28;20445;-78
2021/03/02 07:54:27;;;;;;;105.07;17.50;;;2.20;97.30;;;;;;4977084;28;20975;-78
2021/03/02 07:57:14;;;;;;;149.73;20.80;;;2.30;97.30;;;;;;4979227;28;20914;-78
2021/03/02 07:59:41;;;;;;;131.17;22.43;;;2.40;97.30;;;;;;4994750;28;20455;-78
2021/03/02 08:02:17;;;;;;;111.00;17.53;;;2.40;97.30;;;;;;4976673;28;20441;-78
2021/03/02 08:04:50;;;;;;;70.77;16.80;;;2.50;97.30;;;;;;4980170;28;20424;-79
2021/03/02 08:07:34;;;;;;;80.20;17.70;;;2.50;97.30;;;;;;4995445;28;20463;-80
2021/03/02 08:09:59;;;;;;;101.00;20.10;;;2.60;97.30;;;;;;4974845;28;20535;-80
2021/03/02 08:12:36;;;;;;;73.40;17.47;;;2.70;97.30;;;;;;4974094;28;20925;-79
2021/03/02 08:15:14;;;;;;;73.80;16.83;;;2.70;97.30;;;;;;4956224;28;20229;-78
2021/03/02 08:17:39;;;;;;;100.57;18.50;;;2.60;97.30;;;;;;4963004;28;20489;-78
2021/03/02 08:20:10;;;;;;;124.63;19.30;;;2.40;97.30;;;;;;4966981;28;21012;-78
2021/03/02 08:22:41;;;;;;;75.57;17.90;;;2.50;97.30;;;;;;4966185;28;20632;-78
2021/03/02 08:25:21;;;;;;;78.50;16.77;;;2.60;97.30;;;;;;4983902;28;20479;-78
2021/03/02 08:27:50;;;;;;;76.70;18.37;;;2.60;97.30;;;;;;4976324;28;20412;-80
2021/03/02 08:30:20;;;;;;;55.10;14.93;;;2.60;97.30;;;;;;4979971;28;21040;-77
2021/03/02 08:32:46;;;;;;;72.67;15.87;;;2.70;97.30;;;;;;5007978;28;20413;-81
2021/03/02 08:35:19;;;;;;;76.93;17.30;;;2.80;97.30;;;;;;4982470;28;20424;-79
2021/03/02 08:37:50;;;;;;;68.13;17.47;;;2.80;97.30;;;;;;4976823;28;20173;-78
2021/03/02 08:40:41;;;;;;;66.93;18.80;;;2.90;97.30;;;;;;4976106;28;20425;-78
2021/03/02 08:43:18;;;;;;;55.77;16.40;;;2.90;97.30;;;;;;4966536;28;20470;-76
2021/03/02 08:45:53;;;;;;;63.67;18.60;;;2.90;97.30;;;;;;4976234;28;20895;-78
2021/03/02 08:48:20;;;;;;;60.10;16.77;;;2.90;97.30;;;;;;4960975;28;20944;-78
2021/03/02 08:50:57;;;;;;;78.07;17.70;;;3.00;97.30;;;;;;4998289;28;20823;-77
2021/03/02 08:53:29;;;;;;;49.83;17.43;;;3.00;97.30;;;;;;5000890;28;20486;-79
2021/03/02 08:55:56;;;;;;;68.23;18.93;;;3.10;97.30;;;;;;4968391;28;20536;-78
2021/03/02 08:58:33;;;;;;;47.80;15.37;;;3.20;97.30;;;;;;4956199;28;20425;-78
2021/03/02 09:01:11;;;;;;;56.13;16.57;;;3.30;97.30;;;;;;4962940;28;21073;-78
2021/03/02 09:03:44;;;;;;;57.87;19.20;;;3.30;97.30;;;;;;4992833;28;20420;-77
2021/03/02 09:06:26;;;;;;;52.53;16.23;;;3.40;97.30;;;;;;4959892;28;20441;-78
2021/03/02 09:09:07;;;;;;;56.13;17.00;;;3.40;97.30;;;;;;4985916;28;20409;-78
2021/03/02 09:11:38;;;;;;;67.80;17.10;;;3.50;97.30;;;;;;4994096;28;20442;-78
2021/03/02 09:14:18;;;;;;;60.00;18.07;;;3.50;97.30;;;;;;4975421;28;20421;-79
2021/03/02 09:16:45;;;;;;;73.27;19.97;;;3.60;97.30;;;;;;4974738;28;20417;-78
2021/03/02 09:19:23;;;;;;;46.03;16.67;;;3.70;97.30;;;;;;4992404;28;20417;-78
2021/03/02 09:22:00;;;;;;;51.93;16.40;;;3.70;97.30;;;;;;4974403;28;20459;-78
2021/03/02 09:24:36;;;;;;;44.33;18.33;;;3.80;97.30;;;;;;4974601;28;20416;-77
2021/03/02 09:27:29;;;;;;;46.57;17.23;;;3.80;97.30;;;;;;4958528;28;20515;-77
2021/03/02 09:29:55;;;;;;;44.00;17.67;;;3.90;97.30;;;;;;4988961;28;20472;-78
2021/03/02 09:32:29;;;;;;;61.90;19.40;;;3.90;97.30;;;;;;4990669;28;20962;-77
2021/03/02 09:34:58;;;;;;;41.83;17.30;;;3.90;97.30;;;;;;4993766;28;20531;-78
2021/03/02 09:37:24;;;;;;;58.97;18.93;;;3.80;97.30;;;;;;4993132;28;20486;-78
2021/03/02 09:40:02;;;;;;;43.67;16.57;;;3.90;97.30;;;;;;4993612;28;20424;-78
2021/03/02 09:42:30;;;;;;;47.67;18.23;;;3.80;97.30;;;;;;4992808;28;21050;-78
2021/03/02 09:44:59;;;;;;;46.07;17.23;;;4.00;97.30;;;;;;4993954;28;20465;-78
2021/03/02 09:47:28;;;;;;;50.67;17.30;;;4.00;97.30;;;;;;4999446;28;20421;-79
2021/03/02 09:50:00;;;;;;;43.00;17.57;;;4.00;97.30;;;;;;4992101;28;20457;-78
2021/03/02 09:52:38;;;;;;;42.93;18.33;;;4.00;97.30;;;;;;4974700;28;20801;-78
2021/03/02 09:55:24;;;;;;;41.73;17.50;;;4.00;97.30;;;;;;4982740;28;20428;-77
2021/03/02 09:57:58;;;;;;;47.83;18.60;;;3.90;97.30;;;;;;4967589;28;20433;-79
2021/03/02 10:00:29;;;;;;;44.40;17.73;;;3.90;97.30;;;;;;4971241;28;20467;-77
2021/03/02 10:03:04;;;;;;;40.63;18.33;;;4.10;97.30;;;;;;4956746;28;20432;-77
2021/03/02 10:05:40;;;;;;;39.30;18.00;;;4.30;97.30;;;;;;4965780;28;20420;-78
2021/03/02 10:08:41;;;;;;;38.50;15.63;;;4.40;97.30;;;;;;4984511;28;20459;-79
2021/03/02 10:11:09;;;;;;;40.00;17.27;;;4.60;97.30;;;;;;4968861;28;20523;-78
2021/03/02 10:13:39;;;;;;;42.67;18.73;;;4.70;97.30;;;;;;4992449;28;20915;-78
2021/03/02 10:16:27;;;;;;;41.13;17.07;;;4.40;97.30;;;;;;4991817;28;20796;-77
2021/03/02 10:19:17;;;;;;;41.47;17.63;;;4.60;97.30;;;;;;4967456;28;20516;-78
2021/03/02 10:21:46;;;;;;;39.73;17.40;;;4.70;97.30;;;;;;4981037;28;20986;-79
2021/03/02 10:24:17;;;;;;;42.43;18.40;;;4.70;97.30;;;;;;4974194;28;20803;-78
2021/03/02 10:26:44;;;;;;;44.43;18.93;;;4.70;97.30;;;;;;4990548;28;20417;-78
2021/03/02 10:29:11;;;;;;;47.40;20.47;;;4.70;97.30;;;;;;4990846;28;20417;-79
2021/03/02 10:31:36;;;;;;;39.50;17.87;;;4.80;97.30;;;;;;4973253;28;20528;-78
2021/03/02 10:34:08;;;;;;;42.47;18.93;;;4.90;97.30;;;;;;4973433;28;20559;-78
2021/03/02 10:36:35;;;;;;;41.67;18.63;;;4.90;97.30;;;;;;4973125;28;20433;-78
2021/03/02 10:39:14;;;;;;;39.73;17.90;;;4.90;97.30;;;;;;4991437;28;20409;-78
2021/03/02 10:41:40;;;;;;;43.27;19.00;;;4.90;97.30;;;;;;4990386;28;20464;-78
2021/03/02 10:44:07;;;;;;;40.13;19.77;;;5.10;97.30;;;;;;4972713;28;20494;-77
2021/03/02 10:46:33;;;;;;;45.80;19.37;;;5.20;97.30;;;;;;4969191;28;20429;-78
2021/03/02 10:48:59;;;;;;;45.23;19.70;;;5.40;97.30;;;;;;4973248;28;20421;-77
2021/03/02 10:51:26;;;;;;;40.47;19.07;;;5.50;97.30;;;;;;4979649;28;20848;-78
2021/03/02 10:53:51;;;;;;;52.10;19.90;;;5.70;97.30;;;;;;4994106;28;20467;-78
2021/03/02 10:56:24;;;;;;;44.93;20.87;;;5.90;97.30;;;;;;4995914;28;20420;-75
2021/03/02 10:58:49;;;;;;;44.07;20.60;;;6.00;97.30;;;;;;4997833;28;20307;-79
2021/03/02 11:01:20;;;;;;;39.47;18.53;;;6.10;97.30;;;;;;5010070;28;20476;-78
2021/03/02 11:03:46;;;;;;;40.50;18.37;;;6.20;97.30;;;;;;4994886;28;20174;-79
2021/03/02 11:06:13;;;;;;;40.53;18.40;;;6.30;97.30;;;;;;4978287;28;20432;-80
2021/03/02 11:08:39;;;;;;;43.70;17.27;;;6.40;97.30;;;;;;4995463;28;20417;-78
2021/03/02 11:11:05;;;;;;;45.37;20.67;;;6.40;97.30;;;;;;4980580;28;20567;-79
2021/03/02 11:13:31;;;;;;;39.60;17.73;;;6.40;97.30;;;;;;4996985;28;20526;-78
2021/03/02 11:15:56;;;;;;;37.57;17.80;;;6.50;97.30;;;;;;4997529;28;20420;-79
2021/03/02 11:18:22;;;;;;;41.00;18.33;;;6.50;97.30;;;;;;5015919;28;20213;-79
2021/03/02 11:20:48;;;;;;;38.77;19.33;;;6.50;97.30;;;;;;4996550;28;20201;-78
2021/03/02 11:23:14;;;;;;;44.43;19.60;;;6.50;97.30;;;;;;4997262;28;20177;-78
2021/03/02 11:25:41;;;;;;;36.03;18.87;;;6.70;97.30;;;;;;4997008;28;20918;-79
2021/03/02 11:28:08;;;;;;;43.33;18.40;;;6.70;97.30;;;;;;5016225;28;20227;-78
2021/03/02 11:30:34;;;;;;;40.07;18.53;;;6.90;97.30;;;;;;4996738;28;20743;-78
2021/03/02 11:32:59;;;;;;;41.10;19.70;;;6.90;97.30;;;;;;4977821;28;20420;-79
2021/03/02 11:35:25;;;;;;;42.17;20.60;;;6.90;97.30;;;;;;4976903;28;20174;-78
2021/03/02 11:37:51;;;;;;;41.90;19.00;;;7.00;97.30;;;;;;4976665;28;20170;-79
2021/03/02 11:40:18;;;;;;;43.93;19.77;;;7.20;97.30;;;;;;4993744;28;20797;-78
2021/03/02 11:42:44;;;;;;;36.87;18.97;;;7.30;97.30;;;;;;4975857;28;20206;-78
2021/03/02 11:45:11;;;;;;;42.33;19.50;;;7.50;97.30;;;;;;4993956;28;20918;-78
2021/03/02 11:47:38;;;;;;;38.80;19.67;;;7.70;97.30;;;;;;4976629;28;20915;-78
2021/03/02 11:50:08;;;;;;;43.60;20.20;;;7.90;97.30;;;;;;4976085;28;20449;-78
2021/03/02 11:52:35;;;;;;;36.23;18.87;;;8.10;97.30;;;;;;4989551;28;20455;-78
2021/03/02 11:55:00;;;;;;;41.87;19.23;;;8.20;97.30;;;;;;4995592;28;20416;-78
2021/03/02 11:57:26;;;;;;;36.20;18.87;;;8.30;97.30;;;;;;4995519;28;20423;-78
2021/03/02 11:59:51;;;;;;;35.57;17.83;;;8.40;97.30;;;;;;4995645;28;20177;-80
2021/03/02 12:02:17;;;;;;;46.00;19.33;;;8.60;97.30;;;;;;4995346;28;20201;-79
2021/03/02 12:04:43;;;;;;;38.40;18.37;;;8.80;97.30;;;;;;4995144;28;20268;-78
2021/03/02 12:07:10;;;;;;;37.67;19.10;;;9.00;97.30;;;;;;4995086;28;20420;-79
2021/03/02 12:09:37;;;;;;;37.67;19.63;;;9.20;97.30;;;;;;5013807;28;20205;-80
2021/03/02 12:12:04;;;;;;;40.20;18.10;;;9.30;97.30;;;;;;4986570;28;20443;-79
2021/03/02 12:14:30;;;;;;;40.03;19.20;;;9.30;97.30;;;;;;4976784;28;20413;-79
2021/03/02 12:16:55;;;;;;;40.77;18.20;;;9.40;97.30;;;;;;4976373;28;20409;-78
2021/03/02 12:19:21;;;;;;;37.33;18.17;;;9.60;97.30;;;;;;4976793;28;20181;-76
2021/03/02 12:21:46;;;;;;;34.40;17.47;;;9.90;97.30;;;;;;4976306;28;20317;-77
2021/03/02 12:24:12;;;;;;;42.37;20.60;;;10.00;97.30;;;;;;4976680;28;20189;-78
2021/03/02 12:26:38;;;;;;;35.23;18.13;;;10.30;97.30;;;;;;4993878;28;20220;-79
2021/03/02 12:29:04;;;;;;;33.33;17.70;;;10.50;97.30;;;;;;4975995;28;20181;-79
2021/03/02 12:31:29;;;;;;;38.63;20.00;;;10.80;97.30;;;;;;4990918;28;20633;-79
2021/03/02 12:33:55;;;;;;;40.00;19.10;;;10.80;97.30;;;;;;4964873;28;20197;-78
2021/03/02 12:36:21;;;;;;;36.93;18.73;;;10.80;97.30;;;;;;4980013;28;20674;-78
2021/03/02 12:38:46;;;;;;;37.37;19.73;;;10.80;97.30;;;;;;4976411;28;20654;-78
2021/03/02 12:41:12;;;;;;;38.33;19.90;;;10.90;97.30;;;;;;4976535;28;20680;-78